sensor_id;sensor_type;location;lat;lon;timestamp;P1;durP1;ratioP1;P2;durP2;ratioP2
31306;SDS011;17935;51.120;13.132;2023-08-12T00:02:10;8.25;;;4.70;;
31306;SDS011;17935;51.120;13.132;2023-08-12T00:04:36;7.90;;;4.72;;
31306;SDS011;17935;51.120;13.132;2023-08-12T00:07:02;6.10;;;4.35;;
31306;SDS011;17935;51.120;13.132;2023-08-12T00:09:27;7.93;;;4.93;;
31306;SDS011;17935;51.120;13.132;2023-08-12T00:11:54;10.88;;;5.00;;
31306;SDS011;17935;51.120;13.132;2023-08-12T00:14:19;8.98;;;4.93;;
31306;SDS011;17935;51.120;13.132;2023-08-12T00:16:45;11.15;;;4.70;;
31306;SDS011;17935;51.120;13.132;2023-08-12T00:19:11;7.40;;;4.60;;
31306;SDS011;17935;51.120;13.132;2023-08-12T00:21:38;7.50;;;5.07;;
31306;SDS011;17935;51.120;13.132;2023-08-12T00:24:04;9.75;;;4.35;;
31306;SDS011;17935;51.120;13.132;2023-08-12T00:26:30;9.95;;;5.00;;
31306;SDS011;17935;51.120;13.132;2023-08-12T00:28:56;5.25;;;3.85;;
31306;SDS011;17935;51.120;13.132;2023-08-12T00:31:22;7.55;;;4.65;;
31306;SDS011;17935;51.120;13.132;2023-08-12T00:33:48;9.35;;;4.55;;
31306;SDS011;17935;51.120;13.132;2023-08-12T00:36:14;9.00;;;4.65;;
31306;SDS011;17935;51.120;13.132;2023-08-12T00:38:40;9.38;;;4.78;;
31306;SDS011;17935;51.120;13.132;2023-08-12T00:41:06;7.57;;;4.50;;
31306;SDS011;17935;51.120;13.132;2023-08-12T00:43:32;7.40;;;4.45;;
31306;SDS011;17935;51.120;13.132;2023-08-12T00:45:58;6.95;;;4.78;;
31306;SDS011;17935;51.120;13.132;2023-08-12T00:48:24;10.88;;;4.78;;
31306;SDS011;17935;51.120;13.132;2023-08-12T00:50:51;12.73;;;4.78;;
31306;SDS011;17935;51.120;13.132;2023-08-12T00:53:17;6.97;;;4.50;;
31306;SDS011;17935;51.120;13.132;2023-08-12T00:55:43;6.72;;;4.40;;
31306;SDS011;17935;51.120;13.132;2023-08-12T00:58:09;6.72;;;4.85;;
31306;SDS011;17935;51.120;13.132;2023-08-12T01:00:35;6.35;;;4.60;;
31306;SDS011;17935;51.120;13.132;2023-08-12T01:03:02;9.00;;;4.53;;
31306;SDS011;17935;51.120;13.132;2023-08-12T01:05:29;7.72;;;4.43;;
31306;SDS011;17935;51.120;13.132;2023-08-12T01:07:56;7.03;;;4.60;;
31306;SDS011;17935;51.120;13.132;2023-08-12T01:10:22;7.15;;;4.85;;
31306;SDS011;17935;51.120;13.132;2023-08-12T01:12:50;5.45;;;4.47;;
31306;SDS011;17935;51.120;13.132;2023-08-12T01:15:23;7.50;;;4.47;;
31306;SDS011;17935;51.120;13.132;2023-08-12T01:17:51;11.02;;;4.45;;
31306;SDS011;17935;51.120;13.132;2023-08-12T01:20:22;6.90;;;4.22;;
31306;SDS011;17935;51.120;13.132;2023-08-12T01:22:52;6.13;;;4.10;;
31306;SDS011;17935;51.120;13.132;2023-08-12T01:25:22;5.72;;;4.10;;
31306;SDS011;17935;51.120;13.132;2023-08-12T01:27:48;7.43;;;4.22;;
31306;SDS011;17935;51.120;13.132;2023-08-12T01:30:14;7.43;;;4.35;;
31306;SDS011;17935;51.120;13.132;2023-08-12T01:32:53;6.70;;;4.47;;
31306;SDS011;17935;51.120;13.132;2023-08-12T01:35:21;5.18;;;4.00;;
31306;SDS011;17935;51.120;13.132;2023-08-12T01:37:50;10.52;;;4.80;;
31306;SDS011;17935;51.120;13.132;2023-08-12T01:40:17;9.38;;;4.68;;
31306;SDS011;17935;51.120;13.132;2023-08-12T01:42:43;7.03;;;4.30;;
31306;SDS011;17935;51.120;13.132;2023-08-12T01:45:09;8.07;;;4.40;;
31306;SDS011;17935;51.120;13.132;2023-08-12T01:47:35;5.00;;;4.50;;
31306;SDS011;17935;51.120;13.132;2023-08-12T01:50:02;8.80;;;4.50;;
31306;SDS011;17935;51.120;13.132;2023-08-12T01:52:28;8.75;;;4.50;;
31306;SDS011;17935;51.120;13.132;2023-08-12T01:54:54;4.15;;;3.75;;
31306;SDS011;17935;51.120;13.132;2023-08-12T01:57:20;7.13;;;4.32;;
31306;SDS011;17935;51.120;13.132;2023-08-12T01:59:46;7.78;;;4.30;;
31306;SDS011;17935;51.120;13.132;2023-08-12T02:02:12;8.98;;;4.53;;
31306;SDS011;17935;51.120;13.132;2023-08-12T02:04:39;9.93;;;4.50;;
31306;SDS011;17935;51.120;13.132;2023-08-12T02:07:05;10.17;;;4.77;;
31306;SDS011;17935;51.120;13.132;2023-08-12T02:09:31;6.53;;;4.20;;
31306;SDS011;17935;51.120;13.132;2023-08-12T02:11:57;7.22;;;4.63;;
31306;SDS011;17935;51.120;13.132;2023-08-12T02:14:23;5.25;;;4.43;;
31306;SDS011;17935;51.120;13.132;2023-08-12T02:16:49;6.43;;;4.50;;
31306;SDS011;17935;51.120;13.132;2023-08-12T02:19:15;6.72;;;4.18;;
31306;SDS011;17935;51.120;13.132;2023-08-12T02:21:41;9.30;;;4.72;;
31306;SDS011;17935;51.120;13.132;2023-08-12T02:24:08;5.72;;;4.22;;
31306;SDS011;17935;51.120;13.132;2023-08-12T02:26:34;4.70;;;4.07;;
31306;SDS011;17935;51.120;13.132;2023-08-12T02:29:00;9.43;;;4.37;;
31306;SDS011;17935;51.120;13.132;2023-08-12T02:31:26;5.32;;;4.40;;
31306;SDS011;17935;51.120;13.132;2023-08-12T02:33:52;7.00;;;4.30;;
31306;SDS011;17935;51.120;13.132;2023-08-12T02:36:18;6.60;;;4.03;;
31306;SDS011;17935;51.120;13.132;2023-08-12T02:38:44;6.10;;;4.30;;
31306;SDS011;17935;51.120;13.132;2023-08-12T02:41:10;6.75;;;4.18;;
31306;SDS011;17935;51.120;13.132;2023-08-12T02:43:36;7.75;;;4.30;;
31306;SDS011;17935;51.120;13.132;2023-08-12T02:46:02;10.27;;;4.32;;
31306;SDS011;17935;51.120;13.132;2023-08-12T02:48:28;9.18;;;4.38;;
31306;SDS011;17935;51.120;13.132;2023-08-12T02:50:54;5.53;;;4.20;;
31306;SDS011;17935;51.120;13.132;2023-08-12T02:53:20;8.35;;;4.97;;
31306;SDS011;17935;51.120;13.132;2023-08-12T02:55:46;5.53;;;4.03;;
31306;SDS011;17935;51.120;13.132;2023-08-12T02:58:12;8.25;;;4.45;;
31306;SDS011;17935;51.120;13.132;2023-08-12T03:00:41;6.43;;;4.07;;
31306;SDS011;17935;51.120;13.132;2023-08-12T03:03:10;9.00;;;4.93;;
31306;SDS011;17935;51.120;13.132;2023-08-12T03:05:36;6.82;;;4.88;;
31306;SDS011;17935;51.120;13.132;2023-08-12T03:08:03;7.25;;;4.78;;
31306;SDS011;17935;51.120;13.132;2023-08-12T03:10:29;4.65;;;4.15;;
31306;SDS011;17935;51.120;13.132;2023-08-12T03:12:55;7.40;;;4.55;;
31306;SDS011;17935;51.120;13.132;2023-08-12T03:15:21;5.78;;;4.47;;
31306;SDS011;17935;51.120;13.132;2023-08-12T03:17:47;6.37;;;4.50;;
31306;SDS011;17935;51.120;13.132;2023-08-12T03:20:13;7.68;;;4.50;;
31306;SDS011;17935;51.120;13.132;2023-08-12T03:22:39;4.75;;;4.30;;
31306;SDS011;17935;51.120;13.132;2023-08-12T03:25:05;6.05;;;4.50;;
31306;SDS011;17935;51.120;13.132;2023-08-12T03:27:31;10.30;;;4.80;;
31306;SDS011;17935;51.120;13.132;2023-08-12T03:29:57;8.45;;;4.65;;
31306;SDS011;17935;51.120;13.132;2023-08-12T03:32:24;6.55;;;4.18;;
31306;SDS011;17935;51.120;13.132;2023-08-12T03:34:50;5.25;;;4.25;;
31306;SDS011;17935;51.120;13.132;2023-08-12T03:37:16;7.60;;;4.53;;
31306;SDS011;17935;51.120;13.132;2023-08-12T03:39:42;6.25;;;3.97;;
31306;SDS011;17935;51.120;13.132;2023-08-12T03:42:08;5.93;;;4.68;;
31306;SDS011;17935;51.120;13.132;2023-08-12T03:44:34;8.60;;;4.30;;
31306;SDS011;17935;51.120;13.132;2023-08-12T03:47:00;7.90;;;4.50;;
31306;SDS011;17935;51.120;13.132;2023-08-12T03:49:26;6.65;;;4.60;;
31306;SDS011;17935;51.120;13.132;2023-08-12T03:51:52;9.10;;;4.72;;
31306;SDS011;17935;51.120;13.132;2023-08-12T03:54:18;5.45;;;4.38;;
31306;SDS011;17935;51.120;13.132;2023-08-12T03:56:44;6.40;;;4.40;;
31306;SDS011;17935;51.120;13.132;2023-08-12T03:59:10;5.60;;;4.32;;
31306;SDS011;17935;51.120;13.132;2023-08-12T04:01:36;5.40;;;4.90;;
31306;SDS011;17935;51.120;13.132;2023-08-12T04:04:03;5.22;;;4.38;;
31306;SDS011;17935;51.120;13.132;2023-08-12T04:06:29;7.40;;;5.07;;
31306;SDS011;17935;51.120;13.132;2023-08-12T04:08:55;6.57;;;4.13;;
31306;SDS011;17935;51.120;13.132;2023-08-12T04:11:21;7.10;;;4.60;;
31306;SDS011;17935;51.120;13.132;2023-08-12T04:13:47;5.90;;;4.00;;
31306;SDS011;17935;51.120;13.132;2023-08-12T04:16:13;8.10;;;4.20;;
31306;SDS011;17935;51.120;13.132;2023-08-12T04:18:39;5.55;;;3.97;;
31306;SDS011;17935;51.120;13.132;2023-08-12T04:21:05;5.45;;;4.03;;
31306;SDS011;17935;51.120;13.132;2023-08-12T04:23:31;6.40;;;4.03;;
31306;SDS011;17935;51.120;13.132;2023-08-12T04:25:57;5.47;;;3.77;;
31306;SDS011;17935;51.120;13.132;2023-08-12T04:28:23;6.10;;;4.40;;
31306;SDS011;17935;51.120;13.132;2023-08-12T04:30:49;7.03;;;3.72;;
31306;SDS011;17935;51.120;13.132;2023-08-12T04:33:18;7.82;;;4.25;;
31306;SDS011;17935;51.120;13.132;2023-08-12T04:35:47;4.50;;;3.92;;
31306;SDS011;17935;51.120;13.132;2023-08-12T04:38:13;5.68;;;3.63;;
31306;SDS011;17935;51.120;13.132;2023-08-12T04:40:40;6.45;;;3.90;;
31306;SDS011;17935;51.120;13.132;2023-08-12T04:43:07;6.40;;;4.00;;
31306;SDS011;17935;51.120;13.132;2023-08-12T04:45:33;6.97;;;4.03;;
31306;SDS011;17935;51.120;13.132;2023-08-12T04:47:59;6.55;;;3.95;;
31306;SDS011;17935;51.120;13.132;2023-08-12T04:50:25;4.10;;;3.25;;
31306;SDS011;17935;51.120;13.132;2023-08-12T04:52:51;6.60;;;3.60;;
31306;SDS011;17935;51.120;13.132;2023-08-12T04:55:17;5.28;;;3.28;;
31306;SDS011;17935;51.120;13.132;2023-08-12T04:57:43;4.82;;;3.22;;
31306;SDS011;17935;51.120;13.132;2023-08-12T05:00:09;4.37;;;3.10;;
31306;SDS011;17935;51.120;13.132;2023-08-12T05:02:35;6.90;;;3.60;;
31306;SDS011;17935;51.120;13.132;2023-08-12T05:05:01;4.10;;;3.50;;
31306;SDS011;17935;51.120;13.132;2023-08-12T05:07:28;4.93;;;3.38;;
31306;SDS011;17935;51.120;13.132;2023-08-12T05:09:55;4.82;;;3.30;;
31306;SDS011;17935;51.120;13.132;2023-08-12T05:12:21;4.63;;;2.72;;
31306;SDS011;17935;51.120;13.132;2023-08-12T05:14:47;4.87;;;2.97;;
31306;SDS011;17935;51.120;13.132;2023-08-12T05:17:13;3.67;;;3.08;;
31306;SDS011;17935;51.120;13.132;2023-08-12T05:19:40;3.15;;;2.85;;
31306;SDS011;17935;51.120;13.132;2023-08-12T05:22:06;6.65;;;2.55;;
31306;SDS011;17935;51.120;13.132;2023-08-12T05:24:32;4.18;;;2.80;;
31306;SDS011;17935;51.120;13.132;2023-08-12T05:26:58;2.63;;;2.28;;
31306;SDS011;17935;51.120;13.132;2023-08-12T05:29:24;2.60;;;1.95;;
31306;SDS011;17935;51.120;13.132;2023-08-12T05:31:50;3.38;;;2.63;;
31306;SDS011;17935;51.120;13.132;2023-08-12T05:34:16;3.15;;;2.25;;
31306;SDS011;17935;51.120;13.132;2023-08-12T05:36:42;5.15;;;2.40;;
31306;SDS011;17935;51.120;13.132;2023-08-12T05:39:08;7.00;;;2.38;;
31306;SDS011;17935;51.120;13.132;2023-08-12T05:41:34;2.50;;;1.92;;
31306;SDS011;17935;51.120;13.132;2023-08-12T05:44:00;2.33;;;1.95;;
31306;SDS011;17935;51.120;13.132;2023-08-12T05:46:26;4.78;;;2.00;;
31306;SDS011;17935;51.120;13.132;2023-08-12T05:48:52;3.10;;;2.10;;
31306;SDS011;17935;51.120;13.132;2023-08-12T05:51:18;5.10;;;3.03;;
31306;SDS011;17935;51.120;13.132;2023-08-12T05:53:44;5.93;;;3.47;;
31306;SDS011;17935;51.120;13.132;2023-08-12T05:56:10;7.70;;;2.55;;
31306;SDS011;17935;51.120;13.132;2023-08-12T05:58:36;9.95;;;2.78;;
31306;SDS011;17935;51.120;13.132;2023-08-12T06:01:02;2.72;;;2.20;;
31306;SDS011;17935;51.120;13.132;2023-08-12T06:03:28;3.33;;;2.60;;
31306;SDS011;17935;51.120;13.132;2023-08-12T06:05:55;6.07;;;2.47;;
31306;SDS011;17935;51.120;13.132;2023-08-12T06:08:21;3.55;;;2.22;;
31306;SDS011;17935;51.120;13.132;2023-08-12T06:10:47;3.17;;;1.98;;
31306;SDS011;17935;51.120;13.132;2023-08-12T06:13:13;4.85;;;1.92;;
31306;SDS011;17935;51.120;13.132;2023-08-12T06:15:39;3.42;;;2.08;;
31306;SDS011;17935;51.120;13.132;2023-08-12T06:18:05;5.32;;;1.90;;
31306;SDS011;17935;51.120;13.132;2023-08-12T06:20:31;3.97;;;1.98;;
31306;SDS011;17935;51.120;13.132;2023-08-12T06:22:57;3.42;;;1.77;;
31306;SDS011;17935;51.120;13.132;2023-08-12T06:25:23;2.28;;;1.65;;
31306;SDS011;17935;51.120;13.132;2023-08-12T06:27:49;1.73;;;1.60;;
31306;SDS011;17935;51.120;13.132;2023-08-12T06:30:15;2.55;;;2.00;;
31306;SDS011;17935;51.120;13.132;2023-08-12T06:32:41;2.65;;;1.65;;
31306;SDS011;17935;51.120;13.132;2023-08-12T06:35:07;2.75;;;2.08;;
31306;SDS011;17935;51.120;13.132;2023-08-12T06:37:33;3.25;;;2.05;;
31306;SDS011;17935;51.120;13.132;2023-08-12T06:39:59;2.03;;;1.90;;
31306;SDS011;17935;51.120;13.132;2023-08-12T06:42:25;3.88;;;2.00;;
31306;SDS011;17935;51.120;13.132;2023-08-12T06:44:58;2.05;;;1.80;;
31306;SDS011;17935;51.120;13.132;2023-08-12T06:47:24;2.88;;;1.80;;
31306;SDS011;17935;51.120;13.132;2023-08-12T06:49:52;2.10;;;1.67;;
31306;SDS011;17935;51.120;13.132;2023-08-12T06:52:18;2.20;;;1.70;;
31306;SDS011;17935;51.120;13.132;2023-08-12T06:54:44;1.60;;;1.50;;
31306;SDS011;17935;51.120;13.132;2023-08-12T06:57:10;2.00;;;1.48;;
31306;SDS011;17935;51.120;13.132;2023-08-12T06:59:36;5.45;;;1.45;;
31306;SDS011;17935;51.120;13.132;2023-08-12T07:02:02;1.77;;;1.67;;
31306;SDS011;17935;51.120;13.132;2023-08-12T07:04:28;6.15;;;1.45;;
31306;SDS011;17935;51.120;13.132;2023-08-12T07:06:54;2.35;;;1.90;;
31306;SDS011;17935;51.120;13.132;2023-08-12T07:09:21;5.97;;;1.50;;
31306;SDS011;17935;51.120;13.132;2023-08-12T07:11:47;17.75;;;2.08;;
31306;SDS011;17935;51.120;13.132;2023-08-12T07:14:13;2.83;;;2.05;;
31306;SDS011;17935;51.120;13.132;2023-08-12T07:16:39;2.55;;;1.98;;
31306;SDS011;17935;51.120;13.132;2023-08-12T07:19:05;1.83;;;1.73;;
31306;SDS011;17935;51.120;13.132;2023-08-12T07:21:31;2.42;;;2.20;;
31306;SDS011;17935;51.120;13.132;2023-08-12T07:23:57;3.25;;;2.00;;
31306;SDS011;17935;51.120;13.132;2023-08-12T07:26:23;2.65;;;1.85;;
31306;SDS011;17935;51.120;13.132;2023-08-12T07:28:49;2.40;;;2.05;;
31306;SDS011;17935;51.120;13.132;2023-08-12T07:31:15;2.67;;;2.03;;
31306;SDS011;17935;51.120;13.132;2023-08-12T07:33:41;7.35;;;2.35;;
31306;SDS011;17935;51.120;13.132;2023-08-12T07:36:07;2.95;;;2.00;;
31306;SDS011;17935;51.120;13.132;2023-08-12T07:38:33;2.85;;;1.90;;
31306;SDS011;17935;51.120;13.132;2023-08-12T07:40:59;2.25;;;1.90;;
31306;SDS011;17935;51.120;13.132;2023-08-12T07:43:25;3.55;;;1.85;;
31306;SDS011;17935;51.120;13.132;2023-08-12T07:45:52;2.63;;;2.17;;
31306;SDS011;17935;51.120;13.132;2023-08-12T07:48:21;1.55;;;1.40;;
31306;SDS011;17935;51.120;13.132;2023-08-12T07:50:47;2.13;;;1.70;;
31306;SDS011;17935;51.120;13.132;2023-08-12T07:53:20;2.72;;;2.20;;
31306;SDS011;17935;51.120;13.132;2023-08-12T07:55:46;3.03;;;1.95;;
31306;SDS011;17935;51.120;13.132;2023-08-12T07:58:12;4.03;;;1.77;;
31306;SDS011;17935;51.120;13.132;2023-08-12T08:00:38;1.73;;;1.63;;
31306;SDS011;17935;51.120;13.132;2023-08-12T08:03:04;1.80;;;1.70;;
31306;SDS011;17935;51.120;13.132;2023-08-12T08:05:30;2.50;;;1.88;;
31306;SDS011;17935;51.120;13.132;2023-08-12T08:07:56;2.65;;;1.85;;
31306;SDS011;17935;51.120;13.132;2023-08-12T08:10:22;1.73;;;1.58;;
31306;SDS011;17935;51.120;13.132;2023-08-12T08:12:48;1.55;;;1.42;;
31306;SDS011;17935;51.120;13.132;2023-08-12T08:15:14;1.70;;;1.60;;
31306;SDS011;17935;51.120;13.132;2023-08-12T08:17:40;1.73;;;1.60;;
31306;SDS011;17935;51.120;13.132;2023-08-12T08:20:07;4.10;;;1.73;;
31306;SDS011;17935;51.120;13.132;2023-08-12T08:22:33;3.78;;;1.60;;
31306;SDS011;17935;51.120;13.132;2023-08-12T08:24:59;4.82;;;1.80;;
31306;SDS011;17935;51.120;13.132;2023-08-12T08:27:25;3.08;;;1.55;;
31306;SDS011;17935;51.120;13.132;2023-08-12T08:29:51;1.25;;;1.20;;
31306;SDS011;17935;51.120;13.132;2023-08-12T08:32:17;5.75;;;1.27;;
31306;SDS011;17935;51.120;13.132;2023-08-12T08:34:43;1.45;;;1.20;;
31306;SDS011;17935;51.120;13.132;2023-08-12T08:37:09;2.25;;;1.27;;
31306;SDS011;17935;51.120;13.132;2023-08-12T08:39:35;1.45;;;1.35;;
31306;SDS011;17935;51.120;13.132;2023-08-12T08:42:01;8.15;;;1.40;;
31306;SDS011;17935;51.120;13.132;2023-08-12T08:44:28;1.48;;;1.38;;
31306;SDS011;17935;51.120;13.132;2023-08-12T08:46:58;1.10;;;1.00;;
31306;SDS011;17935;51.120;13.132;2023-08-12T08:49:28;1.38;;;1.27;;
31306;SDS011;17935;51.120;13.132;2023-08-12T08:51:54;1.38;;;1.27;;
31306;SDS011;17935;51.120;13.132;2023-08-12T08:54:21;1.63;;;1.52;;
31306;SDS011;17935;51.120;13.132;2023-08-12T08:56:48;2.35;;;1.48;;
31306;SDS011;17935;51.120;13.132;2023-08-12T08:59:15;2.03;;;1.30;;
31306;SDS011;17935;51.120;13.132;2023-08-12T09:01:41;1.33;;;1.23;;
31306;SDS011;17935;51.120;13.132;2023-08-12T09:04:07;1.58;;;1.48;;
31306;SDS011;17935;51.120;13.132;2023-08-12T09:06:34;1.73;;;1.27;;
31306;SDS011;17935;51.120;13.132;2023-08-12T09:09:01;4.43;;;2.30;;
31306;SDS011;17935;51.120;13.132;2023-08-12T09:11:28;13.60;;;2.72;;
31306;SDS011;17935;51.120;13.132;2023-08-12T09:13:54;2.75;;;1.60;;
31306;SDS011;17935;51.120;13.132;2023-08-12T09:16:20;1.60;;;1.48;;
31306;SDS011;17935;51.120;13.132;2023-08-12T09:18:46;3.33;;;1.50;;
31306;SDS011;17935;51.120;13.132;2023-08-12T09:21:12;2.05;;;1.63;;
31306;SDS011;17935;51.120;13.132;2023-08-12T09:23:38;4.75;;;1.48;;
31306;SDS011;17935;51.120;13.132;2023-08-12T09:26:15;4.85;;;1.73;;
31306;SDS011;17935;51.120;13.132;2023-08-12T09:28:44;3.58;;;1.77;;
31306;SDS011;17935;51.120;13.132;2023-08-12T09:31:29;2.33;;;1.13;;
31306;SDS011;17935;51.120;13.132;2023-08-12T09:34:05;1.40;;;1.30;;
31306;SDS011;17935;51.120;13.132;2023-08-12T09:36:31;3.40;;;1.70;;
31306;SDS011;17935;51.120;13.132;2023-08-12T09:38:57;2.70;;;1.85;;
31306;SDS011;17935;51.120;13.132;2023-08-12T09:41:27;3.70;;;1.70;;
31306;SDS011;17935;51.120;13.132;2023-08-12T09:43:53;3.17;;;1.63;;
31306;SDS011;17935;51.120;13.132;2023-08-12T09:46:21;1.40;;;1.30;;
31306;SDS011;17935;51.120;13.132;2023-08-12T09:48:50;2.13;;;1.92;;
31306;SDS011;17935;51.120;13.132;2023-08-12T09:51:17;2.20;;;2.00;;
31306;SDS011;17935;51.120;13.132;2023-08-12T09:53:43;1.50;;;1.40;;
31306;SDS011;17935;51.120;13.132;2023-08-12T09:56:11;1.60;;;1.50;;
31306;SDS011;17935;51.120;13.132;2023-08-12T09:58:37;4.22;;;1.85;;
31306;SDS011;17935;51.120;13.132;2023-08-12T10:01:03;5.05;;;1.75;;
31306;SDS011;17935;51.120;13.132;2023-08-12T10:03:30;2.30;;;1.33;;
31306;SDS011;17935;51.120;13.132;2023-08-12T10:05:58;3.03;;;1.70;;
31306;SDS011;17935;51.120;13.132;2023-08-12T10:08:24;3.38;;;1.40;;
31306;SDS011;17935;51.120;13.132;2023-08-12T10:10:51;4.38;;;1.63;;
31306;SDS011;17935;51.120;13.132;2023-08-12T10:13:17;2.40;;;1.85;;
31306;SDS011;17935;51.120;13.132;2023-08-12T10:15:43;5.07;;;1.90;;
31306;SDS011;17935;51.120;13.132;2023-08-12T10:18:10;2.17;;;1.55;;
31306;SDS011;17935;51.120;13.132;2023-08-12T10:20:36;1.77;;;1.67;;
31306;SDS011;17935;51.120;13.132;2023-08-12T10:23:02;1.35;;;1.05;;
31306;SDS011;17935;51.120;13.132;2023-08-12T10:25:31;1.67;;;1.50;;
31306;SDS011;17935;51.120;13.132;2023-08-12T10:27:59;1.70;;;1.60;;
31306;SDS011;17935;51.120;13.132;2023-08-12T10:30:27;3.17;;;1.38;;
31306;SDS011;17935;51.120;13.132;2023-08-12T10:32:53;7.03;;;1.50;;
31306;SDS011;17935;51.120;13.132;2023-08-12T10:35:19;2.25;;;1.40;;
31306;SDS011;17935;51.120;13.132;2023-08-12T10:37:48;1.45;;;1.20;;
31306;SDS011;17935;51.120;13.132;2023-08-12T10:40:22;2.80;;;1.23;;
31306;SDS011;17935;51.120;13.132;2023-08-12T10:42:48;4.57;;;1.25;;
31306;SDS011;17935;51.120;13.132;2023-08-12T10:45:16;2.75;;;1.60;;
31306;SDS011;17935;51.120;13.132;2023-08-12T10:47:43;1.98;;;1.70;;
31306;SDS011;17935;51.120;13.132;2023-08-12T10:50:19;1.85;;;1.40;;
31306;SDS011;17935;51.120;13.132;2023-08-12T10:52:45;6.88;;;1.60;;
31306;SDS011;17935;51.120;13.132;2023-08-12T10:57:48;5.20;;;1.65;;
31306;SDS011;17935;51.120;13.132;2023-08-12T11:00:18;1.50;;;1.40;;
31306;SDS011;17935;51.120;13.132;2023-08-12T11:02:48;3.25;;;1.55;;
31306;SDS011;17935;51.120;13.132;2023-08-12T11:05:15;1.58;;;1.48;;
31306;SDS011;17935;51.120;13.132;2023-08-12T11:10:13;31.58;;;4.72;;
31306;SDS011;17935;51.120;13.132;2023-08-12T11:12:40;17.30;;;3.40;;
31306;SDS011;17935;51.120;13.132;2023-08-12T11:15:06;7.75;;;2.20;;
31306;SDS011;17935;51.120;13.132;2023-08-12T11:17:38;3.83;;;1.75;;
31306;SDS011;17935;51.120;13.132;2023-08-12T11:20:05;1.85;;;1.40;;
31306;SDS011;17935;51.120;13.132;2023-08-12T11:22:35;3.50;;;1.80;;
31306;SDS011;17935;51.120;13.132;2023-08-12T11:25:02;5.72;;;1.70;;
31306;SDS011;17935;51.120;13.132;2023-08-12T11:27:35;2.97;;;1.73;;
31306;SDS011;17935;51.120;13.132;2023-08-12T11:30:01;1.20;;;1.10;;
31306;SDS011;17935;51.120;13.132;2023-08-12T11:32:27;1.48;;;1.25;;
31306;SDS011;17935;51.120;13.132;2023-08-12T11:34:53;1.40;;;1.30;;
31306;SDS011;17935;51.120;13.132;2023-08-12T11:37:19;1.52;;;1.42;;
31306;SDS011;17935;51.120;13.132;2023-08-12T11:39:45;1.42;;;1.33;;
31306;SDS011;17935;51.120;13.132;2023-08-12T11:42:11;1.35;;;1.23;;
31306;SDS011;17935;51.120;13.132;2023-08-12T11:44:39;2.00;;;1.80;;
31306;SDS011;17935;51.120;13.132;2023-08-12T11:47:06;1.60;;;1.50;;
31306;SDS011;17935;51.120;13.132;2023-08-12T11:49:33;5.60;;;1.67;;
31306;SDS011;17935;51.120;13.132;2023-08-12T11:51:59;1.98;;;1.83;;
31306;SDS011;17935;51.120;13.132;2023-08-12T11:54:25;2.88;;;1.92;;
31306;SDS011;17935;51.120;13.132;2023-08-12T11:56:51;5.68;;;1.70;;
31306;SDS011;17935;51.120;13.132;2023-08-12T11:59:17;4.07;;;1.70;;
31306;SDS011;17935;51.120;13.132;2023-08-12T12:01:49;6.35;;;2.22;;
31306;SDS011;17935;51.120;13.132;2023-08-12T12:04:16;2.53;;;1.83;;
31306;SDS011;17935;51.120;13.132;2023-08-12T12:06:45;2.03;;;1.83;;
31306;SDS011;17935;51.120;13.132;2023-08-12T12:09:12;5.25;;;1.98;;
31306;SDS011;17935;51.120;13.132;2023-08-12T12:11:39;4.20;;;2.00;;
31306;SDS011;17935;51.120;13.132;2023-08-12T12:14:08;4.63;;;2.05;;
31306;SDS011;17935;51.120;13.132;2023-08-12T12:16:41;4.78;;;2.17;;
31306;SDS011;17935;51.120;13.132;2023-08-12T12:19:20;3.65;;;2.10;;
31306;SDS011;17935;51.120;13.132;2023-08-12T12:21:50;4.03;;;2.28;;
31306;SDS011;17935;51.120;13.132;2023-08-12T12:24:18;3.10;;;2.42;;
31306;SDS011;17935;51.120;13.132;2023-08-12T12:26:44;4.63;;;2.00;;
31306;SDS011;17935;51.120;13.132;2023-08-12T12:29:11;24.60;;;2.80;;
31306;SDS011;17935;51.120;13.132;2023-08-12T12:31:38;3.60;;;2.28;;
31306;SDS011;17935;51.120;13.132;2023-08-12T12:34:04;4.25;;;2.30;;
31306;SDS011;17935;51.120;13.132;2023-08-12T12:36:31;5.03;;;2.53;;
31306;SDS011;17935;51.120;13.132;2023-08-12T12:38:57;10.70;;;2.13;;
31306;SDS011;17935;51.120;13.132;2023-08-12T12:41:23;4.60;;;2.10;;
31306;SDS011;17935;51.120;13.132;2023-08-12T12:43:49;2.10;;;1.90;;
31306;SDS011;17935;51.120;13.132;2023-08-12T12:46:15;2.33;;;2.13;;
31306;SDS011;17935;51.120;13.132;2023-08-12T12:48:42;4.70;;;2.10;;
31306;SDS011;17935;51.120;13.132;2023-08-12T12:51:08;3.28;;;2.50;;
31306;SDS011;17935;51.120;13.132;2023-08-12T12:53:34;2.78;;;2.33;;
31306;SDS011;17935;51.120;13.132;2023-08-12T12:56:00;5.53;;;1.90;;
31306;SDS011;17935;51.120;13.132;2023-08-12T12:58:32;4.88;;;2.20;;
31306;SDS011;17935;51.120;13.132;2023-08-12T13:01:01;6.28;;;2.20;;
31306;SDS011;17935;51.120;13.132;2023-08-12T13:03:27;5.03;;;2.47;;
31306;SDS011;17935;51.120;13.132;2023-08-12T13:05:54;9.80;;;2.55;;
31306;SDS011;17935;51.120;13.132;2023-08-12T13:08:20;15.35;;;2.42;;
31306;SDS011;17935;51.120;13.132;2023-08-12T13:10:46;20.80;;;2.35;;
31306;SDS011;17935;51.120;13.132;2023-08-12T13:13:15;5.72;;;2.30;;
31306;SDS011;17935;51.120;13.132;2023-08-12T13:15:44;4.15;;;1.92;;
31306;SDS011;17935;51.120;13.132;2023-08-12T13:18:11;3.08;;;2.17;;
31306;SDS011;17935;51.120;13.132;2023-08-12T13:20:37;3.38;;;2.30;;
31306;SDS011;17935;51.120;13.132;2023-08-12T13:23:03;12.07;;;3.08;;
31306;SDS011;17935;51.120;13.132;2023-08-12T13:25:30;6.32;;;2.40;;
31306;SDS011;17935;51.120;13.132;2023-08-12T13:27:57;6.22;;;1.90;;
31306;SDS011;17935;51.120;13.132;2023-08-12T13:30:23;4.13;;;2.10;;
31306;SDS011;17935;51.120;13.132;2023-08-12T13:32:50;2.20;;;2.00;;
31306;SDS011;17935;51.120;13.132;2023-08-12T13:35:16;2.00;;;1.80;;
31306;SDS011;17935;51.120;13.132;2023-08-12T13:37:42;2.55;;;1.90;;
31306;SDS011;17935;51.120;13.132;2023-08-12T13:40:08;3.47;;;2.10;;
31306;SDS011;17935;51.120;13.132;2023-08-12T13:42:36;7.10;;;2.25;;
31306;SDS011;17935;51.120;13.132;2023-08-12T13:45:02;3.17;;;1.58;;
31306;SDS011;17935;51.120;13.132;2023-08-12T13:47:29;2.30;;;1.92;;
31306;SDS011;17935;51.120;13.132;2023-08-12T13:49:55;2.72;;;1.95;;
31306;SDS011;17935;51.120;13.132;2023-08-12T13:52:21;2.08;;;1.73;;
31306;SDS011;17935;51.120;13.132;2023-08-12T13:54:47;2.10;;;1.90;;
31306;SDS011;17935;51.120;13.132;2023-08-12T13:57:13;4.22;;;1.88;;
31306;SDS011;17935;51.120;13.132;2023-08-12T13:59:39;5.13;;;2.00;;
31306;SDS011;17935;51.120;13.132;2023-08-12T14:02:08;6.90;;;1.92;;
31306;SDS011;17935;51.120;13.132;2023-08-12T14:04:34;1.98;;;1.88;;
31306;SDS011;17935;51.120;13.132;2023-08-12T14:07:00;2.65;;;2.22;;
31306;SDS011;17935;51.120;13.132;2023-08-12T14:09:26;7.65;;;2.30;;
31306;SDS011;17935;51.120;13.132;2023-08-12T14:11:53;21.40;;;3.25;;
31306;SDS011;17935;51.120;13.132;2023-08-12T14:14:19;6.30;;;2.00;;
31306;SDS011;17935;51.120;13.132;2023-08-12T14:16:45;2.28;;;1.60;;
31306;SDS011;17935;51.120;13.132;2023-08-12T14:19:11;2.17;;;1.88;;
31306;SDS011;17935;51.120;13.132;2023-08-12T14:21:37;1.80;;;1.70;;
31306;SDS011;17935;51.120;13.132;2023-08-12T14:24:03;2.75;;;1.70;;
31306;SDS011;17935;51.120;13.132;2023-08-12T14:26:29;25.98;;;3.88;;
31306;SDS011;17935;51.120;13.132;2023-08-12T14:28:55;3.15;;;2.20;;
31306;SDS011;17935;51.120;13.132;2023-08-12T14:31:21;1.88;;;1.77;;
31306;SDS011;17935;51.120;13.132;2023-08-12T14:33:47;2.50;;;1.90;;
31306;SDS011;17935;51.120;13.132;2023-08-12T14:36:13;2.17;;;1.98;;